createdAt,value
2023-04-08T00:02:18.665Z,99908.41
2023-04-08T00:04:48.929Z,99909.41
2023-04-08T00:07:16.562Z,99903.03
2023-04-08T00:09:44.199Z,99901.41
2023-04-08T00:12:11.749Z,99897.91
2023-04-08T00:14:41.677Z,99900.59
2023-04-08T00:17:09.216Z,99901.63
2023-04-08T00:19:36.901Z,99899.44
2023-04-08T00:22:04.425Z,99883.50
2023-04-08T00:24:32.713Z,99913.69
2023-04-08T00:27:02.974Z,99919.22
2023-04-08T00:29:31.040Z,99917.91
2023-04-08T00:31:58.346Z,99917.38
2023-04-08T00:34:26.498Z,99906.53
2023-04-08T00:36:54.387Z,99916.25
2023-04-08T00:39:22.022Z,99911.06
2023-04-08T00:41:49.347Z,99931.22
2023-04-08T00:44:17.684Z,99919.75
2023-04-08T00:46:45.998Z,99919.16
2023-04-08T00:49:13.728Z,99914.16
2023-04-08T00:51:41.139Z,99916.41
2023-04-08T00:54:08.873Z,99914.28
2023-04-08T00:56:36.934Z,99915.84
2023-04-08T00:59:05.466Z,99905.97
2023-04-08T01:01:33.018Z,99911.88
2023-04-08T01:04:15.311Z,99906.25
2023-04-08T01:06:58.963Z,99902.03
2023-04-08T01:09:32.666Z,99904.31
2023-04-08T01:12:06.205Z,99901.94
2023-04-08T01:14:39.151Z,99900.34
2023-04-08T01:17:07.519Z,99889.44
2023-04-08T01:19:40.233Z,99895.78
2023-04-08T01:22:16.281Z,99893.16
2023-04-08T01:24:45.850Z,99887.06
2023-04-08T01:27:17.108Z,99906.47
2023-04-08T01:29:45.872Z,99906.31
2023-04-08T01:32:14.619Z,99897.66
2023-04-08T01:34:43.314Z,99894.91
2023-04-08T01:37:12.643Z,99902.78
2023-04-08T01:39:42.543Z,99907.63
2023-04-08T01:42:13.969Z,99890.44
2023-04-08T01:44:43.128Z,99896.69
2023-04-08T01:47:13.590Z,99900.97
2023-04-08T01:49:43.326Z,99906.47
2023-04-08T01:52:11.857Z,99905.31
2023-04-08T01:54:39.581Z,99902.09
2023-04-08T01:57:09.772Z,99890.13
2023-04-08T01:59:40.500Z,99901.06
2023-04-08T02:02:10.124Z,99903.88
2023-04-08T02:04:39.239Z,99894.88
2023-04-08T02:07:09.258Z,99901.59
2023-04-08T02:09:36.934Z,99905.41
2023-04-08T02:12:04.670Z,99899.69
2023-04-08T02:14:35.744Z,99913.66
2023-04-08T02:17:24.994Z,99898.00
2023-04-08T02:20:08.009Z,99904.44
2023-04-08T02:23:11.297Z,99896.94
2023-04-08T02:25:43.436Z,99900.34
2023-04-08T02:28:11.785Z,99899.06
2023-04-08T02:30:44.355Z,99896.53
2023-04-08T02:33:14.370Z,99897.00
2023-04-08T02:35:42.588Z,99904.72
2023-04-08T02:38:10.967Z,99883.69
2023-04-08T02:40:38.884Z,99898.34
2023-04-08T02:43:06.444Z,99898.34
2023-04-08T02:45:41.053Z,99901.41
2023-04-08T02:48:09.655Z,99893.47
2023-04-08T02:50:37.790Z,99906.47
2023-04-08T02:53:06.252Z,99904.69
2023-04-08T02:55:35.019Z,99896.34
2023-04-08T02:58:03.565Z,99895.34
2023-04-08T03:00:31.657Z,99911.06
2023-04-08T03:03:00.530Z,99906.00
2023-04-08T03:05:30.584Z,99905.59
2023-04-08T03:07:58.726Z,99893.94
2023-04-08T03:10:26.569Z,99906.03
2023-04-08T03:12:53.877Z,99903.84
2023-04-08T03:15:22.185Z,99905.50
2023-04-08T03:17:49.540Z,99902.31
2023-04-08T03:20:17.333Z,99920.56
2023-04-08T03:22:44.931Z,99916.53
2023-04-08T03:25:12.603Z,99905.78
2023-04-08T03:27:39.927Z,99909.72
2023-04-08T03:30:08.254Z,99917.34
2023-04-08T03:32:36.090Z,99914.31
2023-04-08T03:35:04.630Z,99923.34
2023-04-08T03:37:32.472Z,99917.16
2023-04-08T03:40:00.220Z,99908.50
2023-04-08T03:42:27.801Z,99918.16
2023-04-08T03:44:55.660Z,99928.19
2023-04-08T03:47:23.108Z,99924.06
2023-04-08T03:49:53.748Z,99916.91
2023-04-08T03:52:23.410Z,99935.38
2023-04-08T03:54:51.151Z,99934.16
2023-04-08T03:57:18.595Z,99935.69
2023-04-08T03:59:46.317Z,99948.66
2023-04-08T04:02:17.229Z,99953.56
2023-04-08T04:04:45.564Z,99938.13
2023-04-08T04:07:12.889Z,99936.81
2023-04-08T04:09:46.368Z,99948.91
2023-04-08T04:12:13.742Z,99936.88
2023-04-08T04:14:45.800Z,99948.22
2023-04-08T04:17:21.238Z,99946.94
2023-04-08T04:19:50.087Z,99953.88
2023-04-08T04:22:20.031Z,99954.19
2023-04-08T04:24:49.798Z,99961.66
2023-04-08T04:27:19.074Z,99952.59
2023-04-08T04:29:46.713Z,99965.47
2023-04-08T04:32:14.012Z,99965.28
2023-04-08T04:34:43.181Z,99966.19
2023-04-08T04:37:12.185Z,99969.84
2023-04-08T04:39:41.222Z,99969.19
2023-04-08T04:42:08.570Z,99978.63
2023-04-08T04:44:36.493Z,99971.91
2023-04-08T04:47:04.884Z,99969.56
2023-04-08T04:49:32.516Z,99981.75
2023-04-08T04:51:59.826Z,99979.56
2023-04-08T04:54:27.490Z,99981.09
2023-04-08T04:56:54.784Z,99978.34
2023-04-08T04:59:23.459Z,99971.47
2023-04-08T05:01:52.284Z,99979.72
2023-04-08T05:04:24.717Z,99983.47
2023-04-08T05:06:52.099Z,99980.78
2023-04-08T05:09:19.759Z,99985.50
2023-04-08T05:11:47.083Z,99979.88
2023-04-08T05:14:14.622Z,99973.94
2023-04-08T05:16:41.898Z,99983.34
2023-04-08T05:19:09.730Z,99982.69
2023-04-08T05:21:37.221Z,99993.56
2023-04-08T05:24:05.186Z,99977.38
2023-04-08T05:26:33.156Z,99986.69
2023-04-08T05:29:00.799Z,99978.97
2023-04-08T05:31:28.482Z,99994.19
2023-04-08T05:33:56.376Z,99995.34
2023-04-08T05:36:23.748Z,99988.34
2023-04-08T05:38:52.698Z,99964.91
2023-04-08T05:41:21.632Z,99977.41
2023-04-08T05:43:49.435Z,99963.22
2023-04-08T05:46:16.741Z,99989.44
2023-04-08T05:48:44.337Z,99988.78
2023-04-08T05:51:15.602Z,99991.34
2023-04-08T05:53:43.222Z,99998.69
2023-04-08T05:56:10.563Z,100005.75
2023-04-08T05:58:38.189Z,100003.84
2023-04-08T06:01:07.593Z,100002.53
2023-04-08T06:03:37.084Z,100006.16
2023-04-08T06:06:04.712Z,100003.69
2023-04-08T06:08:32.314Z,100001.34
2023-04-08T06:10:59.650Z,99989.84
2023-04-08T06:13:27.348Z,99994.56
2023-04-08T06:15:54.754Z,100000.66
2023-04-08T06:18:22.520Z,100003.38
2023-04-08T06:20:50.829Z,99995.03
2023-04-08T06:23:18.923Z,100002.22
2023-04-08T06:25:46.407Z,100001.31
2023-04-08T06:28:14.442Z,99999.25
2023-04-08T06:30:41.751Z,99999.66
2023-04-08T06:33:09.653Z,100010.59
2023-04-08T06:35:38.057Z,99978.47
2023-04-08T06:38:05.855Z,100003.16
2023-04-08T06:40:33.580Z,100015.09
2023-04-08T06:43:01.508Z,100025.34
2023-04-08T06:45:35.796Z,100020.22
2023-04-08T06:48:03.676Z,100026.44
2023-04-08T06:50:31.240Z,100028.13
2023-04-08T06:52:58.889Z,100025.44
2023-04-08T06:55:26.655Z,100006.81
2023-04-08T06:57:54.224Z,100013.88
2023-04-08T07:00:21.712Z,100036.84
2023-04-08T07:02:50.966Z,100034.03
2023-04-08T07:05:18.744Z,100033.91
2023-04-08T07:07:46.529Z,100037.47
2023-04-08T07:10:13.839Z,100036.56
2023-04-08T07:12:42.299Z,100035.34
2023-04-08T07:15:10.163Z,100030.66
2023-04-08T07:17:37.992Z,100034.00
2023-04-08T07:20:08.242Z,100034.34
2023-04-08T07:22:36.232Z,100031.84
2023-04-08T07:25:03.725Z,100040.88
2023-04-08T07:27:31.574Z,100039.97
2023-04-08T07:29:58.858Z,100045.75
2023-04-08T07:32:28.321Z,100047.56
2023-04-08T07:34:56.832Z,100041.38
2023-04-08T07:37:24.556Z,100056.25
2023-04-08T07:39:53.657Z,100046.94
2023-04-08T07:42:24.150Z,100051.06
2023-04-08T07:44:53.097Z,100060.22
2023-04-08T07:47:20.802Z,100060.22
2023-04-08T07:49:48.580Z,100057.53
2023-04-08T07:52:16.436Z,100062.63
2023-04-08T07:54:43.803Z,100061.28
2023-04-08T07:57:11.434Z,100064.34
2023-04-08T07:59:38.895Z,100052.63
2023-04-08T08:02:07.108Z,100054.78
2023-04-08T08:04:34.914Z,100053.84
2023-04-08T08:07:03.079Z,100054.03
2023-04-08T08:09:32.126Z,100059.63
2023-04-08T08:11:59.775Z,100062.75
2023-04-08T08:14:27.230Z,100062.75
2023-04-08T08:16:54.973Z,100063.75
2023-04-08T08:19:23.503Z,100063.25
2023-04-08T08:21:52.390Z,100064.13
2023-04-08T08:24:19.735Z,100066.97
2023-04-08T08:26:49.370Z,100062.13
2023-04-08T08:29:17.311Z,100060.78
2023-04-08T08:31:45.064Z,100070.91
2023-04-08T08:34:13.647Z,100070.28
2023-04-08T08:36:43.794Z,100075.09
2023-04-08T08:39:11.203Z,100071.78
2023-04-08T08:41:39.438Z,100073.56
2023-04-08T08:44:09.120Z,100072.69
2023-04-08T08:46:45.218Z,100061.75
2023-04-08T08:49:13.069Z,100061.97
2023-04-08T08:51:42.812Z,100056.19
2023-04-08T08:54:10.246Z,100058.63
2023-04-08T08:56:38.008Z,100062.47
2023-04-08T08:59:06.437Z,100064.41
2023-04-08T09:01:37.934Z,100055.94
2023-04-08T09:04:18.567Z,100064.16
2023-04-08T09:06:49.024Z,100061.66
2023-04-08T09:09:18.008Z,100065.91
2023-04-08T09:11:48.126Z,100079.28
2023-04-08T09:14:26.394Z,100072.84
2023-04-08T09:16:54.202Z,100080.84
2023-04-08T09:19:21.589Z,100065.28
2023-04-08T09:22:11.334Z,100083.31
2023-04-08T09:24:39.034Z,100081.38
2023-04-08T09:27:06.858Z,100086.41
2023-04-08T09:29:37.467Z,100086.34
2023-04-08T09:32:07.573Z,100086.28
2023-04-08T09:34:35.123Z,100087.94
2023-04-08T09:37:02.965Z,100090.38
2023-04-08T09:39:32.771Z,100088.63
2023-04-08T09:42:06.966Z,100088.13
2023-04-08T09:44:38.230Z,100082.09
2023-04-08T09:47:14.782Z,100075.81
2023-04-08T09:49:50.244Z,100089.75
2023-04-08T09:52:28.282Z,100094.56
2023-04-08T09:55:08.873Z,100086.50
2023-04-08T09:58:11.811Z,100100.53
2023-04-08T10:00:50.659Z,100089.22
2023-04-08T10:03:37.819Z,100096.31
2023-04-08T10:06:08.370Z,100098.44
2023-04-08T10:08:36.583Z,100091.88
2023-04-08T10:11:04.036Z,100082.75
2023-04-08T10:13:32.358Z,100093.88
2023-04-08T10:16:19.322Z,100077.91
2023-04-08T10:18:47.066Z,100095.47
2023-04-08T10:21:32.990Z,100094.97
2023-04-08T10:24:06.340Z,100095.06
2023-04-08T10:26:38.887Z,100098.75
2023-04-08T10:29:32.947Z,100097.47
2023-04-08T10:32:01.558Z,100096.25
2023-04-08T10:34:31.118Z,100094.00
2023-04-08T10:37:02.371Z,100097.00
2023-04-08T10:39:31.733Z,100088.69
2023-04-08T10:42:02.784Z,100096.19
2023-04-08T10:44:30.865Z,100095.31
2023-04-08T10:46:58.306Z,100093.69
2023-04-08T10:49:33.770Z,100096.31
2023-04-08T10:52:01.592Z,100080.53
2023-04-08T10:54:29.236Z,100102.69
2023-04-08T10:56:56.832Z,100094.50
2023-04-08T10:59:30.058Z,100093.94
2023-04-08T11:01:58.587Z,100098.00
2023-04-08T11:04:27.699Z,100099.97
2023-04-08T11:06:55.152Z,100099.91
2023-04-08T11:09:22.846Z,100091.31
2023-04-08T11:11:52.476Z,100097.69
2023-04-08T11:14:22.133Z,100099.25
2023-04-08T11:16:49.971Z,100099.50
2023-04-08T11:19:20.149Z,100110.44
2023-04-08T11:21:49.567Z,100106.16
2023-04-08T11:24:18.126Z,100111.66
2023-04-08T11:26:45.598Z,100102.84
2023-04-08T11:29:17.082Z,100097.44
2023-04-08T11:31:44.851Z,100103.66
2023-04-08T11:34:12.481Z,100101.53
2023-04-08T11:36:42.990Z,100100.03
2023-04-08T11:39:12.422Z,100093.44
2023-04-08T11:41:43.013Z,100103.13
2023-04-08T11:44:10.936Z,100095.09
2023-04-08T11:46:38.504Z,100100.22
2023-04-08T11:49:08.239Z,100090.94
2023-04-08T11:51:55.191Z,100097.38
2023-04-08T11:54:32.372Z,100089.19
2023-04-08T11:57:00.213Z,100093.94
2023-04-08T11:59:29.667Z,100089.75
2023-04-08T12:01:57.583Z,100093.84
2023-04-08T12:04:25.647Z,100085.78
2023-04-08T12:06:53.531Z,100092.00
2023-04-08T12:09:21.376Z,100090.94
2023-04-08T12:11:48.897Z,100088.25
2023-04-08T12:14:16.628Z,100087.44
2023-04-08T12:16:44.012Z,100093.13
2023-04-08T12:19:11.628Z,100082.66
2023-04-08T12:21:39.586Z,100085.34
2023-04-08T12:24:07.428Z,100090.94
2023-04-08T12:26:34.737Z,100088.78
2023-04-08T12:29:02.529Z,100088.97
2023-04-08T12:31:29.954Z,100096.41
2023-04-08T12:33:57.595Z,100068.09
2023-04-08T12:36:25.057Z,100080.50
2023-04-08T12:38:52.929Z,100079.25
2023-04-08T12:41:21.265Z,100078.63
2023-04-08T12:44:08.016Z,100078.97
2023-04-08T12:46:35.474Z,100073.19
2023-04-08T12:49:05.117Z,100069.41
2023-04-08T12:51:33.343Z,100068.44
2023-04-08T12:54:01.494Z,100070.31
2023-04-08T12:56:28.907Z,100053.84
2023-04-08T12:58:57.857Z,100064.03
2023-04-08T13:01:45.418Z,100064.72
2023-04-08T13:04:13.939Z,100050.94
2023-04-08T13:06:42.954Z,100056.34
2023-04-08T13:09:11.361Z,100062.81
2023-04-08T13:11:38.828Z,100058.59
2023-04-08T13:14:08.980Z,100058.25
2023-04-08T13:16:37.780Z,100057.22
2023-04-08T13:19:06.242Z,100054.09
2023-04-08T13:21:33.647Z,100056.47
2023-04-08T13:24:02.664Z,100049.81
2023-04-08T13:26:30.139Z,100055.03
2023-04-08T13:28:58.615Z,100048.69
2023-04-08T13:31:26.716Z,100044.56
2023-04-08T13:33:57.585Z,100055.75
2023-04-08T13:36:26.168Z,100055.06
2023-04-08T13:38:53.903Z,100056.13
2023-04-08T13:41:21.421Z,100051.41
2023-04-08T13:43:50.650Z,100046.47
2023-04-08T13:46:18.414Z,100048.91
2023-04-08T13:48:46.634Z,100049.44
2023-04-08T13:51:14.113Z,100046.16
2023-04-08T13:53:41.855Z,100052.88
2023-04-08T13:56:09.174Z,100046.66
2023-04-08T13:58:37.234Z,100047.41
2023-04-08T14:01:04.577Z,100048.63
2023-04-08T14:03:32.589Z,100051.91
2023-04-08T14:06:01.676Z,100051.31
2023-04-08T14:08:29.699Z,100042.34
2023-04-08T14:10:59.410Z,100059.94
2023-04-08T14:13:28.068Z,100053.59
2023-04-08T14:15:58.758Z,100058.41
2023-04-08T14:18:29.381Z,100056.22
2023-04-08T14:20:59.863Z,100052.63
2023-04-08T14:23:27.515Z,100035.41
2023-04-08T14:25:55.174Z,100048.25
2023-04-08T14:28:22.941Z,100034.75
2023-04-08T14:30:50.350Z,100039.03
2023-04-08T14:33:18.011Z,100049.25
2023-04-08T14:35:45.324Z,100050.81
2023-04-08T14:38:12.949Z,100042.81
2023-04-08T14:40:40.786Z,100043.00
2023-04-08T14:43:08.534Z,100037.31
2023-04-08T14:45:35.902Z,100045.31
2023-04-08T14:48:04.100Z,100043.75
2023-04-08T14:50:31.931Z,100034.00
2023-04-08T14:53:01.301Z,100033.06
2023-04-08T14:55:30.235Z,100043.88
2023-04-08T14:57:59.844Z,100042.22
2023-04-08T15:00:28.703Z,100039.50
2023-04-08T15:02:56.744Z,100032.53
2023-04-08T15:05:24.171Z,100030.66
2023-04-08T15:07:51.950Z,100034.47
2023-04-08T15:10:19.258Z,100023.69
2023-04-08T15:12:47.688Z,100042.13
2023-04-08T15:15:15.059Z,100023.97
2023-04-08T15:17:42.779Z,100032.91
2023-04-08T15:20:11.185Z,100037.44
2023-04-08T15:22:40.764Z,100024.63
2023-04-08T15:25:09.350Z,100031.41
2023-04-08T15:27:37.733Z,100019.75
2023-04-08T15:30:10.675Z,100021.06
2023-04-08T15:32:39.668Z,100034.09
2023-04-08T15:35:08.019Z,100033.09
2023-04-08T15:37:36.595Z,100038.66
2023-04-08T15:40:07.630Z,100035.50
2023-04-08T15:42:37.320Z,100041.44
2023-04-08T15:45:04.990Z,100037.91
2023-04-08T15:47:35.398Z,100029.06
2023-04-08T15:50:03.122Z,100038.19
2023-04-08T15:52:32.910Z,100038.94
2023-04-08T15:55:04.089Z,100044.72
2023-04-08T15:57:34.094Z,100034.22
2023-04-08T16:00:01.394Z,100043.94
2023-04-08T16:02:29.889Z,100050.75
2023-04-08T16:04:57.497Z,100041.53
2023-04-08T16:07:29.435Z,100045.19
2023-04-08T16:10:08.282Z,100045.75
2023-04-08T16:12:39.134Z,100056.44
2023-04-08T16:15:09.928Z,100059.13
2023-04-08T16:17:50.100Z,100053.25
2023-04-08T16:20:19.819Z,100059.50
2023-04-08T16:22:50.462Z,100051.84
2023-04-08T16:25:19.528Z,100047.03
2023-04-08T16:28:01.527Z,100056.31
2023-04-08T16:30:31.517Z,100060.03
2023-04-08T16:32:59.962Z,100057.22
2023-04-08T16:35:27.406Z,100061.31
2023-04-08T16:37:55.629Z,100034.59
2023-04-08T16:40:23.173Z,100045.47
2023-04-08T16:42:51.189Z,100064.38
2023-04-08T16:45:21.766Z,100060.81
2023-04-08T16:47:58.213Z,100072.03
2023-04-08T16:50:28.743Z,100071.53
2023-04-08T16:52:57.707Z,100071.09
2023-04-08T16:55:25.806Z,100067.84
2023-04-08T16:57:54.824Z,100072.03
2023-04-08T17:00:22.942Z,100068.41
2023-04-08T17:02:50.978Z,100060.69
2023-04-08T17:05:18.493Z,100066.09
2023-04-08T17:07:48.248Z,100070.34
2023-04-08T17:10:17.344Z,100074.25
2023-04-08T17:12:46.640Z,100083.13
2023-04-08T17:15:15.842Z,100084.28
2023-04-08T17:17:44.964Z,100084.56
2023-04-08T17:20:12.932Z,100075.34
2023-04-08T17:22:40.786Z,100078.44
2023-04-08T17:25:08.533Z,100093.28
2023-04-08T17:27:36.660Z,100092.63
2023-04-08T17:30:04.519Z,100092.34
2023-04-08T17:32:32.378Z,100095.22
2023-04-08T17:34:59.672Z,100103.81
2023-04-08T17:37:52.029Z,100113.41
2023-04-08T17:40:19.670Z,100113.72
2023-04-08T17:42:47.609Z,100109.84
2023-04-08T17:45:15.113Z,100116.91
2023-04-08T17:47:44.214Z,100115.75
2023-04-08T17:50:12.019Z,100118.94
2023-04-08T17:52:44.355Z,100126.66
2023-04-08T17:55:12.996Z,100118.97
2023-04-08T17:57:41.178Z,100125.72
2023-04-08T18:03:12.573Z,100136.63
2023-04-08T18:05:40.514Z,100139.16
2023-04-08T18:08:13.060Z,100143.19
2023-04-08T18:11:11.914Z,100148.91
2023-04-08T18:13:39.729Z,100154.28
2023-04-08T18:16:07.454Z,100138.34
2023-04-08T18:18:37.058Z,100151.44
2023-04-08T18:21:05.717Z,100152.28
2023-04-08T18:23:35.123Z,100167.22
2023-04-08T18:26:02.608Z,100160.19
2023-04-08T18:28:32.234Z,100159.53
2023-04-08T18:31:00.029Z,100167.41
2023-04-08T18:33:28.452Z,100167.59
2023-04-08T18:35:57.710Z,100171.28
2023-04-08T18:38:29.309Z,100169.28
2023-04-08T18:40:56.879Z,100172.31
2023-04-08T18:43:25.442Z,100170.63
2023-04-08T18:45:52.901Z,100176.16
2023-04-08T18:48:21.363Z,100176.31
2023-04-08T18:50:49.673Z,100173.13
2023-04-08T18:53:18.450Z,100166.06
2023-04-08T18:55:51.836Z,100174.13
2023-04-08T18:58:21.441Z,100176.47
2023-04-08T19:00:49.394Z,100176.13
2023-04-08T19:03:17.374Z,100179.84
2023-04-08T19:05:49.089Z,100184.72
2023-04-08T19:08:18.144Z,100183.88
2023-04-08T19:10:45.627Z,100180.84
2023-04-08T19:13:14.333Z,100182.03
2023-04-08T19:15:43.290Z,100184.72
2023-04-08T19:18:12.140Z,100181.50
2023-04-08T19:20:40.155Z,100193.09
2023-04-08T19:23:08.141Z,100173.78
2023-04-08T19:25:37.492Z,100188.56
2023-04-08T19:28:09.170Z,100174.47
2023-04-08T19:30:38.149Z,100176.13
2023-04-08T19:33:07.979Z,100179.16
2023-04-08T19:35:35.611Z,100173.09
2023-04-08T19:38:06.375Z,100181.03
2023-04-08T19:40:35.267Z,100177.47
2023-04-08T19:43:04.431Z,100178.31
2023-04-08T19:45:34.293Z,100170.75
2023-04-08T19:48:02.579Z,100184.53
2023-04-08T19:50:31.499Z,100189.19
2023-04-08T19:53:02.765Z,100189.16
2023-04-08T19:55:37.618Z,100191.19
2023-04-08T19:58:18.350Z,100170.19
2023-04-08T20:00:46.515Z,100189.84
2023-04-08T20:03:15.745Z,100191.38
2023-04-08T20:05:46.099Z,100188.38
2023-04-08T20:08:14.234Z,100175.38
2023-04-08T20:10:41.722Z,100172.00
2023-04-08T20:13:16.125Z,100178.38
2023-04-08T20:15:45.194Z,100184.47
2023-04-08T20:18:15.549Z,100182.09
2023-04-08T20:20:44.380Z,100177.38
2023-04-08T20:23:13.872Z,100168.28
2023-04-08T20:25:42.660Z,100179.38
2023-04-08T20:28:11.790Z,100178.53
2023-04-08T20:30:41.003Z,100178.16
2023-04-08T20:33:08.597Z,100181.31
2023-04-08T20:35:37.952Z,100179.13
2023-04-08T20:38:06.119Z,100172.41
2023-04-08T20:40:36.020Z,100168.53
2023-04-08T20:43:05.337Z,100182.31
2023-04-08T20:45:34.618Z,100176.44
2023-04-08T20:48:02.431Z,100186.13
2023-04-08T20:50:32.230Z,100199.03
2023-04-08T20:53:00.836Z,100188.16
2023-04-08T20:55:28.157Z,100174.19
2023-04-08T20:57:55.930Z,100196.22
2023-04-08T21:00:26.004Z,100192.56
2023-04-08T21:02:53.922Z,100201.22
2023-04-08T21:05:22.138Z,100210.00
2023-04-08T21:07:49.983Z,100206.81
2023-04-08T21:10:18.019Z,100191.91
2023-04-08T21:12:48.730Z,100202.63
2023-04-08T21:15:16.302Z,100212.72
2023-04-08T21:17:44.028Z,100217.59
2023-04-08T21:20:12.789Z,100209.00
2023-04-08T21:22:41.768Z,100208.31
2023-04-08T21:25:09.343Z,100190.34
2023-04-08T21:27:38.235Z,100204.94
2023-04-08T21:30:06.284Z,100207.81
2023-04-08T21:32:36.620Z,100209.66
2023-04-08T21:35:04.998Z,100220.22
2023-04-08T21:37:32.734Z,100204.06
2023-04-08T21:40:01.598Z,100206.06
2023-04-08T21:42:34.156Z,100205.59
2023-04-08T21:45:04.023Z,100203.75
2023-04-08T21:47:32.209Z,100211.97
2023-04-08T21:50:01.423Z,100213.97
2023-04-08T21:52:30.012Z,100207.19
2023-04-08T21:54:57.533Z,100203.88
2023-04-08T21:57:25.342Z,100203.09
2023-04-08T21:59:52.718Z,100200.22
2023-04-08T22:02:21.925Z,100206.88
2023-04-08T22:04:49.733Z,100194.25
2023-04-08T22:07:17.344Z,100208.88
2023-04-08T22:09:44.900Z,100198.81
2023-04-08T22:12:12.585Z,100204.03
2023-04-08T22:14:39.924Z,100206.81
2023-04-08T22:17:07.570Z,100207.94
2023-04-08T22:19:36.426Z,100208.03
2023-04-08T22:22:08.998Z,100193.13
2023-04-08T22:24:37.220Z,100196.97
2023-04-08T22:27:04.951Z,100194.19
2023-04-08T22:29:32.310Z,100206.38
2023-04-08T22:32:00.045Z,100207.19
2023-04-08T22:34:27.494Z,100199.41
2023-04-08T22:36:55.162Z,100200.34
2023-04-08T22:39:26.170Z,100206.09
2023-04-08T22:41:54.162Z,100198.56
2023-04-08T22:44:21.682Z,100206.16
2023-04-08T22:46:49.284Z,100193.97
2023-04-08T22:49:16.593Z,100210.50
2023-04-08T22:51:44.247Z,100206.94
2023-04-08T22:54:11.617Z,100213.53
2023-04-08T22:56:39.183Z,100194.53
2023-04-08T22:59:06.661Z,100190.97
2023-04-08T23:01:34.542Z,100206.72
2023-04-08T23:04:03.012Z,100203.50
2023-04-08T23:06:31.456Z,100205.22
2023-04-08T23:08:58.809Z,100202.13
2023-04-08T23:11:27.423Z,100208.53
2023-04-08T23:13:54.768Z,100200.66
2023-04-08T23:16:26.022Z,100199.66
2023-04-08T23:18:53.589Z,100192.50
2023-04-08T23:21:21.714Z,100207.31
2023-04-08T23:23:49.260Z,100202.81
2023-04-08T23:26:19.161Z,100188.00
2023-04-08T23:28:47.579Z,100201.53
2023-04-08T23:31:15.550Z,100194.03
2023-04-08T23:33:42.893Z,100182.63
2023-04-08T23:36:11.899Z,100184.75
2023-04-08T23:38:39.365Z,100198.78
2023-04-08T23:41:08.409Z,100196.94
2023-04-08T23:43:36.928Z,100189.44
2023-04-08T23:46:04.630Z,100204.13
2023-04-08T23:48:31.949Z,100180.50
2023-04-08T23:50:59.646Z,100192.97
2023-04-08T23:53:27.123Z,100196.16
2023-04-08T23:56:07.710Z,100173.22
2023-04-08T23:58:35.503Z,100179.66
